createdAt,value
2023-03-29T00:00:15.847Z,100674.40
2023-03-29T00:02:49.106Z,100676.95
2023-03-29T00:05:25.516Z,100686.63
2023-03-29T00:07:54.486Z,100686.52
2023-03-29T00:10:24.298Z,100682.77
2023-03-29T00:12:53.562Z,100680.64
2023-03-29T00:15:21.788Z,100680.09
2023-03-29T00:17:51.143Z,100683.09
2023-03-29T00:20:19.462Z,100688.22
2023-03-29T00:22:48.502Z,100686.50
2023-03-29T00:25:17.558Z,100687.86
2023-03-29T00:27:46.238Z,100686.34
2023-03-29T00:30:15.511Z,100692.92
2023-03-29T00:32:46.632Z,100694.40
2023-03-29T00:35:20.029Z,100698.88
2023-03-29T00:37:51.134Z,100703.89
2023-03-29T00:40:19.842Z,100705.18
2023-03-29T00:42:51.353Z,100711.69
2023-03-29T00:45:27.041Z,100708.25
2023-03-29T00:48:00.279Z,100707.37
2023-03-29T00:50:38.080Z,100704.67
2023-03-29T00:53:12.531Z,100704.18
2023-03-29T00:55:43.801Z,100716.13
2023-03-29T00:58:13.998Z,100714.05
2023-03-29T01:00:50.002Z,100721.32
2023-03-29T01:03:25.232Z,100727.23
2023-03-29T01:05:57.358Z,100725.48
2023-03-29T01:08:31.896Z,100723.48
2023-03-29T01:11:09.823Z,100724.52
2023-03-29T01:14:00.577Z,100723.31
2023-03-29T01:16:35.526Z,100731.60
2023-03-29T01:19:05.434Z,100735.05
2023-03-29T01:21:44.614Z,100736.88
2023-03-29T01:24:25.597Z,100747.09
2023-03-29T01:27:14.026Z,100749.83
2023-03-29T01:29:51.281Z,100755.04
2023-03-29T01:32:42.930Z,100761.00
2023-03-29T01:35:17.693Z,100763.05
2023-03-29T01:37:49.912Z,100768.15
2023-03-29T01:40:18.034Z,100768.75
2023-03-29T01:43:08.634Z,100776.68
2023-03-29T01:45:53.761Z,100781.22
2023-03-29T01:48:27.862Z,100783.98
2023-03-29T01:51:05.494Z,100784.20
2023-03-29T01:54:11.935Z,100784.17
2023-03-29T01:56:42.389Z,100781.83
2023-03-29T01:59:18.798Z,100788.71
2023-03-29T02:01:53.095Z,100787.94
2023-03-29T02:04:25.735Z,100790.80
2023-03-29T02:06:54.408Z,100793.34
2023-03-29T02:09:22.878Z,100791.29
2023-03-29T02:11:51.756Z,100794.05
2023-03-29T02:14:24.956Z,100790.77
2023-03-29T02:16:53.752Z,100786.40
2023-03-29T02:19:24.182Z,100787.45
2023-03-29T02:22:04.196Z,100795.08
2023-03-29T02:24:33.365Z,100793.16
2023-03-29T02:27:06.885Z,100798.94
2023-03-29T02:29:36.941Z,100798.50
2023-03-29T02:32:21.383Z,100802.86
2023-03-29T02:35:02.129Z,100805.36
2023-03-29T02:37:34.669Z,100810.27
2023-03-29T02:40:12.748Z,100808.57
2023-03-29T02:42:41.750Z,100812.98
2023-03-29T02:45:12.318Z,100811.71
2023-03-29T02:47:46.078Z,100817.90
2023-03-29T02:50:14.548Z,100813.30
2023-03-29T02:52:47.310Z,100823.61
2023-03-29T02:55:16.601Z,100827.79
2023-03-29T02:57:45.747Z,100835.44
2023-03-29T03:00:20.247Z,100833.52
2023-03-29T03:02:48.983Z,100838.26
2023-03-29T03:05:18.045Z,100844.48
2023-03-29T03:07:46.483Z,100842.38
2023-03-29T03:10:15.322Z,100840.96
2023-03-29T03:12:47.971Z,100841.63
2023-03-29T03:15:16.407Z,100837.82
2023-03-29T03:17:46.783Z,100839.04
2023-03-29T03:20:15.165Z,100841.25
2023-03-29T03:22:49.823Z,100846.27
2023-03-29T03:25:21.404Z,100852.52
2023-03-29T03:27:50.413Z,100853.35
2023-03-29T03:30:21.055Z,100860.95
2023-03-29T03:33:27.157Z,100867.72
2023-03-29T03:36:11.456Z,100869.23
2023-03-29T03:38:46.271Z,100869.84
2023-03-29T03:41:14.840Z,100871.03
2023-03-29T03:43:48.846Z,100876.55
2023-03-29T03:46:18.144Z,100880.15
2023-03-29T03:48:47.184Z,100883.63
2023-03-29T03:51:23.178Z,100890.05
2023-03-29T03:53:51.867Z,100890.23
2023-03-29T03:56:35.728Z,100900.55
2023-03-29T03:59:26.770Z,100894.02
2023-03-29T04:02:08.698Z,100900.98
2023-03-29T04:04:39.589Z,100906.76
2023-03-29T04:07:13.247Z,100908.74
2023-03-29T04:10:02.344Z,100919.45
2023-03-29T04:12:51.682Z,100921.90
2023-03-29T04:15:23.233Z,100922.27
2023-03-29T04:18:00.045Z,100927.55
2023-03-29T04:20:35.330Z,100928.52
2023-03-29T04:23:03.857Z,100929.71
2023-03-29T04:25:32.556Z,100932.24
2023-03-29T04:28:23.059Z,100936.39
2023-03-29T04:31:00.448Z,100936.82
2023-03-29T04:33:47.533Z,100937.78
2023-03-29T04:36:18.696Z,100940.25
2023-03-29T04:38:48.170Z,100944.59
2023-03-29T04:41:18.231Z,100945.81
2023-03-29T04:44:03.552Z,100945.33
2023-03-29T04:46:33.533Z,100945.20
2023-03-29T04:49:17.992Z,100954.75
2023-03-29T04:51:49.160Z,100951.71
2023-03-29T04:54:22.899Z,100961.20
2023-03-29T04:57:08.714Z,100956.67
2023-03-29T04:59:56.674Z,100951.74
2023-03-29T05:02:44.777Z,100963.38
2023-03-29T05:05:14.114Z,100966.45
2023-03-29T05:07:46.226Z,100971.42
2023-03-29T05:10:15.116Z,100971.89
2023-03-29T05:12:46.902Z,100976.02
2023-03-29T05:15:15.262Z,100988.79
2023-03-29T05:17:45.048Z,100990.80
2023-03-29T05:20:14.771Z,100996.52
2023-03-29T05:22:49.805Z,100999.17
2023-03-29T05:25:44.057Z,101002.57
2023-03-29T05:28:13.225Z,101006.40
2023-03-29T05:30:43.087Z,101009.77
2023-03-29T05:33:21.145Z,101012.52
2023-03-29T05:35:49.499Z,101021.89
2023-03-29T05:38:17.973Z,101022.46
2023-03-29T05:40:46.513Z,101022.96
2023-03-29T05:43:20.274Z,101028.71
2023-03-29T05:45:49.018Z,101028.40
2023-03-29T05:48:18.622Z,101027.39
2023-03-29T05:50:51.301Z,101022.36
2023-03-29T05:53:22.002Z,101019.44
2023-03-29T05:55:51.624Z,101016.98
2023-03-29T05:58:22.650Z,101032.36
2023-03-29T06:00:51.474Z,101043.67
2023-03-29T06:03:46.402Z,101034.59
2023-03-29T06:06:18.333Z,101033.31
2023-03-29T06:08:47.937Z,101028.03
2023-03-29T06:11:37.337Z,101032.77
2023-03-29T06:14:29.086Z,101022.77
2023-03-29T06:17:10.910Z,101031.00
2023-03-29T06:19:41.628Z,101021.16
2023-03-29T06:22:10.206Z,101023.15
2023-03-29T06:24:41.126Z,101029.61
2023-03-29T06:27:15.757Z,101032.61
2023-03-29T06:29:44.642Z,101045.33
2023-03-29T06:32:18.693Z,101047.13
2023-03-29T06:35:00.666Z,101050.73
2023-03-29T06:37:34.819Z,101041.48
2023-03-29T06:40:13.505Z,101058.15
2023-03-29T06:42:46.670Z,101064.80
2023-03-29T06:45:49.810Z,101069.50
2023-03-29T06:48:27.653Z,101066.60
2023-03-29T06:51:02.698Z,101053.17
2023-03-29T06:53:33.094Z,101056.98
2023-03-29T06:56:09.634Z,101074.66
2023-03-29T06:58:49.996Z,101073.94
2023-03-29T07:01:35.567Z,101071.20
2023-03-29T07:04:21.223Z,101070.50
2023-03-29T07:07:20.567Z,101079.51
2023-03-29T07:09:55.730Z,101086.15
2023-03-29T07:12:44.821Z,101084.50
2023-03-29T07:15:13.863Z,101090.45
2023-03-29T07:18:08.898Z,101111.61
2023-03-29T07:20:39.285Z,101096.08
2023-03-29T07:23:11.873Z,101091.03
2023-03-29T07:25:44.025Z,101084.31
2023-03-29T07:28:13.479Z,101084.88
2023-03-29T07:30:45.293Z,101093.80
2023-03-29T07:33:18.274Z,101092.70
2023-03-29T07:39:15.850Z,101090.63
2023-03-29T07:41:53.092Z,101105.34
2023-03-29T07:44:21.992Z,101115.04
2023-03-29T07:46:54.370Z,101105.11
2023-03-29T07:53:13.976Z,101104.02
2023-03-29T07:56:15.867Z,101104.05
2023-03-29T07:59:09.798Z,101112.28
2023-03-29T08:09:56.189Z,101120.14
2023-03-29T08:13:02.642Z,101141.83
2023-03-29T08:15:49.432Z,101133.21
2023-03-29T08:18:34.606Z,101128.05
2023-03-29T08:21:09.656Z,101144.08
2023-03-29T08:23:42.973Z,101143.16
2023-03-29T08:26:24.038Z,101152.00
2023-03-29T08:28:53.461Z,101145.78
2023-03-29T08:31:24.880Z,101156.05
2023-03-29T08:34:00.685Z,101142.61
2023-03-29T08:36:57.762Z,101151.54
2023-03-29T08:39:41.961Z,101141.99
2023-03-29T08:42:41.158Z,101153.11
2023-03-29T08:45:13.500Z,101148.64
2023-03-29T08:48:13.842Z,101151.08
2023-03-29T08:51:02.687Z,101148.27
2023-03-29T08:53:52.995Z,101152.64
2023-03-29T08:56:44.697Z,101164.30
2023-03-29T08:59:31.262Z,101165.29
2023-03-29T09:02:02.634Z,101157.92
2023-03-29T09:04:33.717Z,101164.71
2023-03-29T09:07:21.376Z,101158.33
2023-03-29T09:09:53.535Z,101170.65
2023-03-29T09:12:52.971Z,101168.39
2023-03-29T09:15:56.357Z,101167.61
2023-03-29T09:18:57.663Z,101153.70
2023-03-29T09:21:34.992Z,101149.66
2023-03-29T09:24:45.804Z,101157.64
2023-03-29T09:27:50.495Z,101164.62
2023-03-29T09:30:43.275Z,101165.27
2023-03-29T09:33:30.529Z,101166.19
2023-03-29T09:36:47.184Z,101162.71
2023-03-29T09:39:16.929Z,101158.81
2023-03-29T09:42:04.341Z,101185.43
2023-03-29T09:44:41.641Z,101165.98
2023-03-29T09:47:23.312Z,101167.45
2023-03-29T09:50:02.345Z,101163.62
2023-03-29T09:52:33.547Z,101181.70
2023-03-29T09:55:14.306Z,101175.05
2023-03-29T09:58:18.348Z,101171.50
2023-03-29T10:00:55.169Z,101175.98
2023-03-29T10:03:29.935Z,101179.66
2023-03-29T10:06:10.092Z,101179.70
2023-03-29T10:08:50.631Z,101179.36
2023-03-29T10:11:23.864Z,101185.02
2023-03-29T10:13:57.636Z,101177.27
2023-03-29T10:16:35.670Z,101174.75
2023-03-29T10:19:23.259Z,101178.31
2023-03-29T10:22:03.200Z,101169.59
2023-03-29T10:24:31.792Z,101175.51
2023-03-29T10:27:10.625Z,101174.86
2023-03-29T10:29:41.262Z,101179.17
2023-03-29T10:32:24.815Z,101183.09
2023-03-29T10:34:54.188Z,101182.14
2023-03-29T10:37:23.970Z,101179.42
2023-03-29T10:39:53.485Z,101178.64
2023-03-29T10:42:24.168Z,101172.48
2023-03-29T10:44:55.128Z,101180.76
2023-03-29T10:47:25.064Z,101186.67
2023-03-29T10:49:56.969Z,101178.90
2023-03-29T10:52:26.460Z,101172.52
2023-03-29T10:54:55.688Z,101175.30
2023-03-29T10:57:35.745Z,101168.27
2023-03-29T11:00:08.114Z,101198.40
2023-03-29T11:02:56.253Z,101193.06
2023-03-29T11:05:47.047Z,101191.68
2023-03-29T11:08:25.209Z,101206.30
2023-03-29T11:11:32.983Z,101192.01
2023-03-29T11:14:37.803Z,101185.58
2023-03-29T11:17:43.748Z,101194.22
2023-03-29T11:20:32.517Z,101203.47
2023-03-29T11:23:30.418Z,101202.94
2023-03-29T11:26:10.863Z,101221.23
2023-03-29T11:28:47.812Z,101215.36
2023-03-29T11:31:23.539Z,101219.60
2023-03-29T11:34:12.523Z,101215.14
2023-03-29T11:37:23.634Z,101210.89
2023-03-29T11:40:11.197Z,101211.52
2023-03-29T11:42:43.263Z,101222.89
2023-03-29T11:45:34.633Z,101221.64
2023-03-29T11:48:04.250Z,101232.84
2023-03-29T11:50:42.213Z,101227.34
2023-03-29T11:59:54.634Z,101232.94
2023-03-29T12:02:36.898Z,101229.98
2023-03-29T12:05:13.925Z,101220.74
2023-03-29T12:07:46.713Z,101229.34
2023-03-29T12:10:23.628Z,101227.83
2023-03-29T12:13:01.948Z,101224.40
2023-03-29T12:15:33.159Z,101233.21
2023-03-29T12:21:53.822Z,101241.60
2023-03-29T12:24:47.276Z,101245.41
2023-03-29T12:27:36.208Z,101258.10
2023-03-29T12:33:41.981Z,101266.04
2023-03-29T12:36:41.213Z,101270.07
2023-03-29T12:39:40.550Z,101271.22
2023-03-29T12:42:27.360Z,101272.42
2023-03-29T12:45:29.147Z,101273.21
2023-03-29T12:47:57.874Z,101275.25
2023-03-29T12:50:37.424Z,101277.34
2023-03-29T12:53:22.695Z,101282.64
2023-03-29T12:56:01.494Z,101284.16
2023-03-29T12:58:38.874Z,101285.01
2023-03-29T13:01:09.701Z,101285.53
2023-03-29T13:03:47.982Z,101286.85
2023-03-29T13:07:08.089Z,101281.22
2023-03-29T13:09:59.496Z,101282.20
2023-03-29T13:12:42.875Z,101286.64
2023-03-29T13:15:16.793Z,101292.09
2023-03-29T13:18:02.897Z,101289.73
2023-03-29T13:20:56.510Z,101296.26
2023-03-29T13:23:41.050Z,101298.20
2023-03-29T13:26:27.250Z,101301.56
2023-03-29T13:29:02.516Z,101303.09
2023-03-29T13:31:44.440Z,101298.73
2023-03-29T13:34:24.082Z,101300.81
2023-03-29T13:37:17.955Z,101301.48
2023-03-29T13:39:53.954Z,101305.04
2023-03-29T13:42:35.637Z,101303.13
2023-03-29T13:45:27.738Z,101308.17
2023-03-29T13:48:23.106Z,101307.39
2023-03-29T13:50:54.342Z,101308.36
2023-03-29T13:53:30.229Z,101310.92
2023-03-29T13:56:01.936Z,101316.02
2023-03-29T13:58:48.252Z,101327.88
2023-03-29T14:01:23.354Z,101328.83
2023-03-29T14:03:55.779Z,101336.27
2023-03-29T14:06:32.803Z,101336.91
2023-03-29T14:09:04.990Z,101337.67
2023-03-29T14:11:33.639Z,101329.34
2023-03-29T14:14:03.363Z,101327.61
2023-03-29T14:16:35.586Z,101328.16
2023-03-29T14:19:06.723Z,101329.41
2023-03-29T14:21:35.460Z,101330.48
2023-03-29T14:24:05.886Z,101331.14
2023-03-29T14:26:36.027Z,101330.95
2023-03-29T14:29:09.959Z,101333.52
2023-03-29T14:31:40.330Z,101340.17
2023-03-29T14:34:16.660Z,101346.45
2023-03-29T14:36:48.890Z,101350.21
2023-03-29T14:39:19.502Z,101358.20
2023-03-29T14:42:01.814Z,101366.91
2023-03-29T14:44:37.228Z,101372.05
2023-03-29T14:47:09.036Z,101370.61
2023-03-29T14:49:44.497Z,101370.75
2023-03-29T14:52:18.676Z,101372.98
2023-03-29T14:54:51.284Z,101376.48
2023-03-29T14:57:29.944Z,101379.23
2023-03-29T15:00:01.885Z,101382.91
2023-03-29T15:02:34.790Z,101387.73
2023-03-29T15:05:05.375Z,101393.16
2023-03-29T15:07:34.532Z,101394.46
2023-03-29T15:10:05.685Z,101397.36
2023-03-29T15:12:34.529Z,101401.55
2023-03-29T15:15:04.520Z,101405.50
2023-03-29T15:17:49.565Z,101406.38
2023-03-29T15:20:39.225Z,101405.86
2023-03-29T15:23:17.032Z,101411.71
2023-03-29T15:25:52.121Z,101414.58
2023-03-29T15:28:33.941Z,101419.43
2023-03-29T15:31:08.103Z,101423.17
2023-03-29T15:33:39.039Z,101427.60
2023-03-29T15:36:08.708Z,101429.77
2023-03-29T15:38:43.900Z,101433.15
2023-03-29T15:41:14.196Z,101437.38
2023-03-29T15:43:43.378Z,101435.47
2023-03-29T15:46:12.349Z,101442.45
2023-03-29T15:48:40.937Z,101436.82
2023-03-29T15:51:12.760Z,101443.98
2023-03-29T15:53:44.146Z,101444.87
2023-03-29T15:56:16.394Z,101448.48
2023-03-29T15:58:47.152Z,101456.91
2023-03-29T16:01:23.748Z,101456.96
2023-03-29T16:03:52.838Z,101463.59
2023-03-29T16:06:23.959Z,101461.08
2023-03-29T16:08:52.166Z,101463.84
2023-03-29T16:11:21.207Z,101470.11
2023-03-29T16:13:58.262Z,101472.70
2023-03-29T16:16:27.307Z,101475.27
2023-03-29T16:18:56.095Z,101471.31
2023-03-29T16:21:24.631Z,101475.88
2023-03-29T16:23:52.857Z,101479.52
2023-03-29T16:26:32.252Z,101478.61
2023-03-29T16:29:01.440Z,101480.20
2023-03-29T16:31:31.653Z,101480.08
2023-03-29T16:34:01.167Z,101481.66
2023-03-29T16:36:30.958Z,101487.79
2023-03-29T16:39:05.951Z,101491.52
2023-03-29T16:41:36.977Z,101497.33
2023-03-29T16:44:05.482Z,101499.10
2023-03-29T16:46:33.945Z,101503.76
2023-03-29T16:49:02.667Z,101509.21
2023-03-29T16:51:34.419Z,101511.04
2023-03-29T16:54:02.744Z,101512.91
2023-03-29T16:56:31.041Z,101519.05
2023-03-29T16:59:00.977Z,101517.85
2023-03-29T17:01:30.150Z,101520.04
2023-03-29T17:03:58.490Z,101525.16
2023-03-29T17:06:28.131Z,101527.13
2023-03-29T17:08:56.828Z,101532.09
2023-03-29T17:11:26.454Z,101533.49
2023-03-29T17:13:57.490Z,101535.27
2023-03-29T17:16:25.754Z,101539.06
2023-03-29T17:18:54.388Z,101543.02
2023-03-29T17:21:22.760Z,101545.10
2023-03-29T17:23:51.382Z,101542.08
2023-03-29T17:26:19.599Z,101544.48
2023-03-29T17:28:47.869Z,101547.03
2023-03-29T17:31:17.120Z,101552.98
2023-03-29T17:33:45.956Z,101555.16
2023-03-29T17:36:14.436Z,101559.50
2023-03-29T17:38:43.266Z,101558.48
2023-03-29T17:41:11.934Z,101560.38
2023-03-29T17:43:42.020Z,101563.13
2023-03-29T17:46:10.487Z,101566.84
2023-03-29T17:48:39.235Z,101568.94
2023-03-29T17:51:07.498Z,101569.89
2023-03-29T17:53:35.785Z,101566.66
2023-03-29T17:56:04.421Z,101575.14
2023-03-29T17:58:33.637Z,101575.30
2023-03-29T18:01:09.320Z,101576.08
2023-03-29T18:03:38.764Z,101575.44
2023-03-29T18:06:08.984Z,101571.98
2023-03-29T18:08:37.614Z,101578.67
2023-03-29T18:11:07.345Z,101577.43
2023-03-29T18:13:35.669Z,101582.36
2023-03-29T18:16:13.920Z,101584.08
2023-03-29T18:18:46.333Z,101583.64
2023-03-29T18:21:15.515Z,101586.86
2023-03-29T18:23:45.594Z,101590.50
2023-03-29T18:26:15.446Z,101587.59
2023-03-29T18:28:49.513Z,101586.33
2023-03-29T18:31:19.959Z,101584.59
2023-03-29T18:33:48.827Z,101587.31
2023-03-29T18:36:17.899Z,101591.02
2023-03-29T18:38:46.203Z,101590.20
2023-03-29T18:41:14.515Z,101589.54
2023-03-29T18:43:44.332Z,101584.48
2023-03-29T18:46:12.582Z,101588.52
2023-03-29T18:48:42.001Z,101590.88
2023-03-29T18:51:11.657Z,101589.85
2023-03-29T18:53:42.080Z,101583.43
2023-03-29T18:56:11.571Z,101584.39
2023-03-29T18:58:39.746Z,101585.33
2023-03-29T19:01:09.754Z,101586.52
2023-03-29T19:03:39.030Z,101583.23
2023-03-29T19:06:07.980Z,101582.95
2023-03-29T19:08:39.812Z,101579.20
2023-03-29T19:11:10.346Z,101577.22
2023-03-29T19:13:38.452Z,101581.31
2023-03-29T19:16:07.226Z,101580.95
2023-03-29T19:18:36.722Z,101582.25
2023-03-29T19:21:04.855Z,101581.21
2023-03-29T19:23:34.072Z,101576.88
2023-03-29T19:26:03.690Z,101573.63
2023-03-29T19:28:33.494Z,101575.80
2023-03-29T19:31:02.114Z,101571.73
2023-03-29T19:33:31.817Z,101577.27
2023-03-29T19:36:00.768Z,101576.35
2023-03-29T19:38:29.443Z,101573.95
2023-03-29T19:40:58.288Z,101575.92
2023-03-29T19:43:27.156Z,101579.61
2023-03-29T19:45:55.957Z,101582.38
2023-03-29T19:48:24.714Z,101582.83
2023-03-29T19:50:53.560Z,101583.64
2023-03-29T19:53:23.297Z,101578.90
2023-03-29T19:55:52.500Z,101582.70
2023-03-29T19:58:21.952Z,101579.19
2023-03-29T20:00:53.343Z,101580.48
2023-03-29T20:03:21.988Z,101577.98
2023-03-29T20:05:50.952Z,101578.05
2023-03-29T20:08:19.123Z,101576.89
2023-03-29T20:10:47.652Z,101574.56
2023-03-29T20:13:24.524Z,101576.80
2023-03-29T20:16:00.098Z,101578.42
2023-03-29T20:18:29.010Z,101577.51
2023-03-29T20:20:58.386Z,101577.11
2023-03-29T20:23:26.868Z,101577.80
2023-03-29T20:25:57.440Z,101577.77
2023-03-29T20:28:25.844Z,101575.12
2023-03-29T20:30:54.551Z,101575.87
2023-03-29T20:33:23.439Z,101573.73
2023-03-29T20:35:51.796Z,101573.38
2023-03-29T20:38:20.085Z,101577.14
2023-03-29T20:40:49.094Z,101575.01
2023-03-29T20:43:20.341Z,101573.55
2023-03-29T20:45:53.652Z,101575.63
2023-03-29T20:48:24.385Z,101573.88
2023-03-29T20:50:52.679Z,101571.19
2023-03-29T20:53:21.313Z,101570.77
2023-03-29T20:55:49.643Z,101572.54
2023-03-29T20:58:42.076Z,101571.79
2023-03-29T21:01:12.404Z,101567.81
2023-03-29T21:03:42.633Z,101568.46
2023-03-29T21:06:14.130Z,101567.38
2023-03-29T21:08:45.447Z,101568.35
2023-03-29T21:11:16.401Z,101566.83
2023-03-29T21:13:45.610Z,101564.83
2023-03-29T21:16:14.081Z,101565.27
2023-03-29T21:18:43.435Z,101561.45
2023-03-29T21:21:11.931Z,101560.17
2023-03-29T21:23:40.675Z,101554.80
2023-03-29T21:26:09.526Z,101556.52
2023-03-29T21:28:37.774Z,101552.11
2023-03-29T21:31:06.726Z,101551.59
2023-03-29T21:33:35.601Z,101553.98
2023-03-29T21:36:04.341Z,101551.28
2023-03-29T21:38:33.219Z,101552.92
2023-03-29T21:41:02.810Z,101552.52
2023-03-29T21:43:31.571Z,101548.89
2023-03-29T21:46:00.206Z,101548.48
2023-03-29T21:48:29.248Z,101547.62
2023-03-29T21:50:57.698Z,101551.10
2023-03-29T21:53:25.905Z,101551.27
2023-03-29T21:55:54.193Z,101551.20
2023-03-29T21:58:22.628Z,101552.47
2023-03-29T22:00:52.221Z,101553.20
2023-03-29T22:03:21.983Z,101557.17
2023-03-29T22:05:59.839Z,101557.27
2023-03-29T22:08:28.727Z,101558.84
2023-03-29T22:10:57.205Z,101560.37
2023-03-29T22:13:31.114Z,101560.20
2023-03-29T22:16:00.579Z,101561.04
2023-03-29T22:18:30.496Z,101561.45
2023-03-29T22:21:00.313Z,101561.02
2023-03-29T22:23:29.159Z,101560.90
2023-03-29T22:25:57.494Z,101564.91
2023-03-29T22:28:26.554Z,101569.96
2023-03-29T22:30:55.040Z,101567.36
2023-03-29T22:33:23.180Z,101571.88
2023-03-29T22:35:51.731Z,101573.81
2023-03-29T22:38:20.358Z,101573.46
2023-03-29T22:40:52.877Z,101572.64
2023-03-29T22:43:21.671Z,101574.62
2023-03-29T22:45:50.082Z,101574.39
2023-03-29T22:48:19.356Z,101574.91
2023-03-29T22:50:47.710Z,101570.36
2023-03-29T22:53:16.110Z,101575.48
2023-03-29T22:55:45.960Z,101573.56
2023-03-29T22:58:14.845Z,101577.48
2023-03-29T23:00:43.348Z,101576.09
2023-03-29T23:03:11.562Z,101576.98
2023-03-29T23:05:39.797Z,101578.80
2023-03-29T23:08:08.224Z,101581.36
2023-03-29T23:10:42.626Z,101582.81
2023-03-29T23:13:12.903Z,101580.94
2023-03-29T23:15:42.987Z,101583.11
2023-03-29T23:18:18.345Z,101583.68
2023-03-29T23:20:48.706Z,101583.77
2023-03-29T23:23:18.005Z,101581.81
2023-03-29T23:25:47.582Z,101583.95
2023-03-29T23:28:21.837Z,101581.40
2023-03-29T23:31:02.917Z,101581.15
2023-03-29T23:33:35.218Z,101581.20
2023-03-29T23:36:05.649Z,101586.25
2023-03-29T23:38:37.378Z,101585.98
2023-03-29T23:41:08.653Z,101584.27
2023-03-29T23:43:43.174Z,101586.89
2023-03-29T23:46:15.335Z,101585.48
2023-03-29T23:48:49.146Z,101588.94
2023-03-29T23:51:18.716Z,101587.63
2023-03-29T23:53:47.930Z,101589.15
2023-03-29T23:56:21.605Z,101592.02
2023-03-29T23:58:50.998Z,101591.11
